sensor_id;sensor_type;location;lat;lon;timestamp;temperature;humidity
32612;DHT22;19030;49.478;8.986;2022-10-16T00:00:19;15.20;99.90
32612;DHT22;19030;49.478;8.986;2022-10-16T00:02:20;15.20;99.90
32612;DHT22;19030;49.478;8.986;2022-10-16T00:04:20;15.20;99.90
32612;DHT22;19030;49.478;8.986;2022-10-16T00:06:22;15.20;99.90
32612;DHT22;19030;49.478;8.986;2022-10-16T00:08:22;15.10;99.90
32612;DHT22;19030;49.478;8.986;2022-10-16T00:10:23;15.20;99.90
32612;DHT22;19030;49.478;8.986;2022-10-16T00:12:23;15.20;99.90
32612;DHT22;19030;49.478;8.986;2022-10-16T00:14:24;15.20;99.90
32612;DHT22;19030;49.478;8.986;2022-10-16T00:16:25;15.20;99.90
32612;DHT22;19030;49.478;8.986;2022-10-16T00:18:27;15.20;99.90
32612;DHT22;19030;49.478;8.986;2022-10-16T00:20:28;15.20;99.90
32612;DHT22;19030;49.478;8.986;2022-10-16T00:22:29;15.20;99.90
32612;DHT22;19030;49.478;8.986;2022-10-16T00:24:30;15.20;99.90
32612;DHT22;19030;49.478;8.986;2022-10-16T00:26:33;15.20;99.90
32612;DHT22;19030;49.478;8.986;2022-10-16T00:28:35;15.20;99.90
32612;DHT22;19030;49.478;8.986;2022-10-16T00:30:39;15.20;99.90
32612;DHT22;19030;49.478;8.986;2022-10-16T00:32:40;15.20;99.90
32612;DHT22;19030;49.478;8.986;2022-10-16T00:34:40;15.30;99.90
32612;DHT22;19030;49.478;8.986;2022-10-16T00:36:41;15.30;99.90
32612;DHT22;19030;49.478;8.986;2022-10-16T00:38:42;15.30;99.90
32612;DHT22;19030;49.478;8.986;2022-10-16T00:40:43;15.20;99.90
32612;DHT22;19030;49.478;8.986;2022-10-16T00:42:43;15.30;99.90
32612;DHT22;19030;49.478;8.986;2022-10-16T00:46:56;15.30;99.90
32612;DHT22;19030;49.478;8.986;2022-10-16T00:49:06;15.30;99.90
32612;DHT22;19030;49.478;8.986;2022-10-16T00:51:07;15.30;99.90
32612;DHT22;19030;49.478;8.986;2022-10-16T00:53:08;15.30;99.90
32612;DHT22;19030;49.478;8.986;2022-10-16T00:55:09;15.30;99.90
32612;DHT22;19030;49.478;8.986;2022-10-16T00:57:10;15.30;99.90
32612;DHT22;19030;49.478;8.986;2022-10-16T00:59:16;15.30;99.90
32612;DHT22;19030;49.478;8.986;2022-10-16T01:01:18;15.30;99.90
32612;DHT22;19030;49.478;8.986;2022-10-16T01:03:33;15.30;99.90
32612;DHT22;19030;49.478;8.986;2022-10-16T01:05:46;15.30;99.90
32612;DHT22;19030;49.478;8.986;2022-10-16T01:08:13;15.40;99.90
32612;DHT22;19030;49.478;8.986;2022-10-16T01:10:33;15.30;99.90
32612;DHT22;19030;49.478;8.986;2022-10-16T01:12:45;15.30;99.90
32612;DHT22;19030;49.478;8.986;2022-10-16T01:14:53;15.30;99.90
32612;DHT22;19030;49.478;8.986;2022-10-16T01:17:09;15.30;99.90
32612;DHT22;19030;49.478;8.986;2022-10-16T01:19:41;15.30;99.90
32612;DHT22;19030;49.478;8.986;2022-10-16T01:21:46;15.40;99.90
32612;DHT22;19030;49.478;8.986;2022-10-16T01:23:59;15.30;99.90
32612;DHT22;19030;49.478;8.986;2022-10-16T01:28:31;15.30;99.90
32612;DHT22;19030;49.478;8.986;2022-10-16T01:30:35;15.30;99.90
32612;DHT22;19030;49.478;8.986;2022-10-16T01:32:41;15.30;99.90
32612;DHT22;19030;49.478;8.986;2022-10-16T01:34:49;15.30;99.90
32612;DHT22;19030;49.478;8.986;2022-10-16T01:37:00;15.30;99.90
32612;DHT22;19030;49.478;8.986;2022-10-16T01:39:03;15.30;99.90
32612;DHT22;19030;49.478;8.986;2022-10-16T01:41:14;15.30;99.90
32612;DHT22;19030;49.478;8.986;2022-10-16T01:43:20;15.30;99.90
32612;DHT22;19030;49.478;8.986;2022-10-16T01:45:22;15.30;99.90
32612;DHT22;19030;49.478;8.986;2022-10-16T01:47:25;15.30;99.90
32612;DHT22;19030;49.478;8.986;2022-10-16T01:49:28;15.30;99.90
32612;DHT22;19030;49.478;8.986;2022-10-16T01:51:30;15.30;99.90
32612;DHT22;19030;49.478;8.986;2022-10-16T01:53:31;15.20;99.90
32612;DHT22;19030;49.478;8.986;2022-10-16T01:55:36;15.30;99.90
32612;DHT22;19030;49.478;8.986;2022-10-16T01:57:41;15.30;99.90
32612;DHT22;19030;49.478;8.986;2022-10-16T01:59:48;15.30;99.90
32612;DHT22;19030;49.478;8.986;2022-10-16T02:01:58;15.30;99.90
32612;DHT22;19030;49.478;8.986;2022-10-16T02:04:03;15.30;99.90
32612;DHT22;19030;49.478;8.986;2022-10-16T02:06:05;15.30;99.90
32612;DHT22;19030;49.478;8.986;2022-10-16T02:08:07;15.30;99.90
32612;DHT22;19030;49.478;8.986;2022-10-16T02:10:08;15.20;99.90
32612;DHT22;19030;49.478;8.986;2022-10-16T02:12:26;15.30;99.90
32612;DHT22;19030;49.478;8.986;2022-10-16T02:14:28;15.30;99.90
32612;DHT22;19030;49.478;8.986;2022-10-16T02:16:41;15.30;99.90
32612;DHT22;19030;49.478;8.986;2022-10-16T02:18:45;15.30;99.90
32612;DHT22;19030;49.478;8.986;2022-10-16T02:20:51;15.30;99.90
32612;DHT22;19030;49.478;8.986;2022-10-16T02:22:54;15.30;99.90
32612;DHT22;19030;49.478;8.986;2022-10-16T02:24:57;15.20;99.90
32612;DHT22;19030;49.478;8.986;2022-10-16T02:27:25;15.20;99.90
32612;DHT22;19030;49.478;8.986;2022-10-16T02:29:26;15.20;99.90
32612;DHT22;19030;49.478;8.986;2022-10-16T02:31:29;15.20;99.90
32612;DHT22;19030;49.478;8.986;2022-10-16T02:33:32;15.20;99.90
32612;DHT22;19030;49.478;8.986;2022-10-16T02:35:34;15.20;99.90
32612;DHT22;19030;49.478;8.986;2022-10-16T02:37:36;15.20;99.90
32612;DHT22;19030;49.478;8.986;2022-10-16T02:39:39;15.20;99.90
32612;DHT22;19030;49.478;8.986;2022-10-16T02:41:40;15.20;99.90
32612;DHT22;19030;49.478;8.986;2022-10-16T02:43:41;15.20;99.90
32612;DHT22;19030;49.478;8.986;2022-10-16T02:45:41;15.20;99.90
32612;DHT22;19030;49.478;8.986;2022-10-16T02:47:42;15.20;99.90
32612;DHT22;19030;49.478;8.986;2022-10-16T02:49:43;15.20;99.90
32612;DHT22;19030;49.478;8.986;2022-10-16T02:51:43;15.20;99.90
32612;DHT22;19030;49.478;8.986;2022-10-16T02:53:44;15.20;99.90
32612;DHT22;19030;49.478;8.986;2022-10-16T02:55:44;15.20;99.90
32612;DHT22;19030;49.478;8.986;2022-10-16T02:57:45;15.10;99.90
32612;DHT22;19030;49.478;8.986;2022-10-16T02:59:46;15.10;99.90
32612;DHT22;19030;49.478;8.986;2022-10-16T03:01:47;15.20;99.90
32612;DHT22;19030;49.478;8.986;2022-10-16T03:03:47;15.20;99.90
32612;DHT22;19030;49.478;8.986;2022-10-16T03:05:48;15.20;99.90
32612;DHT22;19030;49.478;8.986;2022-10-16T03:07:48;15.10;99.90
32612;DHT22;19030;49.478;8.986;2022-10-16T03:09:49;15.20;99.90
32612;DHT22;19030;49.478;8.986;2022-10-16T03:11:49;15.10;99.90
32612;DHT22;19030;49.478;8.986;2022-10-16T03:13:50;15.10;99.90
32612;DHT22;19030;49.478;8.986;2022-10-16T03:15:50;15.10;99.90
32612;DHT22;19030;49.478;8.986;2022-10-16T03:17:51;15.10;99.90
32612;DHT22;19030;49.478;8.986;2022-10-16T03:19:52;15.10;99.90
32612;DHT22;19030;49.478;8.986;2022-10-16T03:21:52;15.00;99.90
32612;DHT22;19030;49.478;8.986;2022-10-16T03:23:53;15.10;99.90
32612;DHT22;19030;49.478;8.986;2022-10-16T03:25:53;15.00;99.90
32612;DHT22;19030;49.478;8.986;2022-10-16T03:27:54;15.10;99.90
32612;DHT22;19030;49.478;8.986;2022-10-16T03:29:55;15.00;99.90
32612;DHT22;19030;49.478;8.986;2022-10-16T03:31:56;15.00;99.90
32612;DHT22;19030;49.478;8.986;2022-10-16T03:33:56;15.00;99.90
32612;DHT22;19030;49.478;8.986;2022-10-16T03:35:57;15.00;99.90
32612;DHT22;19030;49.478;8.986;2022-10-16T03:37:57;15.00;99.90
32612;DHT22;19030;49.478;8.986;2022-10-16T03:39:58;15.10;99.90
32612;DHT22;19030;49.478;8.986;2022-10-16T03:41:59;15.00;99.90
32612;DHT22;19030;49.478;8.986;2022-10-16T03:44:00;15.00;99.90
32612;DHT22;19030;49.478;8.986;2022-10-16T03:46:00;15.00;99.90
32612;DHT22;19030;49.478;8.986;2022-10-16T03:48:01;15.10;99.90
32612;DHT22;19030;49.478;8.986;2022-10-16T03:50:04;15.10;99.90
32612;DHT22;19030;49.478;8.986;2022-10-16T03:52:04;15.10;99.90
32612;DHT22;19030;49.478;8.986;2022-10-16T03:54:05;15.10;99.90
32612;DHT22;19030;49.478;8.986;2022-10-16T03:56:06;15.10;99.90
32612;DHT22;19030;49.478;8.986;2022-10-16T03:58:07;15.00;99.90
32612;DHT22;19030;49.478;8.986;2022-10-16T04:00:08;15.00;99.90
32612;DHT22;19030;49.478;8.986;2022-10-16T04:02:13;15.00;99.90
32612;DHT22;19030;49.478;8.986;2022-10-16T04:04:13;15.00;99.90
32612;DHT22;19030;49.478;8.986;2022-10-16T04:06:14;15.00;99.90
32612;DHT22;19030;49.478;8.986;2022-10-16T04:08:15;14.90;99.90
32612;DHT22;19030;49.478;8.986;2022-10-16T04:10:15;14.90;99.90
32612;DHT22;19030;49.478;8.986;2022-10-16T04:12:16;14.90;99.90
32612;DHT22;19030;49.478;8.986;2022-10-16T04:14:16;14.90;99.90
32612;DHT22;19030;49.478;8.986;2022-10-16T04:16:17;14.90;99.90
32612;DHT22;19030;49.478;8.986;2022-10-16T04:18:17;14.90;99.90
32612;DHT22;19030;49.478;8.986;2022-10-16T04:20:18;14.90;99.90
32612;DHT22;19030;49.478;8.986;2022-10-16T04:22:19;14.90;99.90
32612;DHT22;19030;49.478;8.986;2022-10-16T04:24:19;14.90;99.90
32612;DHT22;19030;49.478;8.986;2022-10-16T04:26:20;14.90;99.90
32612;DHT22;19030;49.478;8.986;2022-10-16T04:28:21;14.90;99.90
32612;DHT22;19030;49.478;8.986;2022-10-16T04:30:22;14.90;99.90
32612;DHT22;19030;49.478;8.986;2022-10-16T04:32:23;14.90;99.90
32612;DHT22;19030;49.478;8.986;2022-10-16T04:34:23;14.90;99.90
32612;DHT22;19030;49.478;8.986;2022-10-16T04:36:24;14.90;99.90
32612;DHT22;19030;49.478;8.986;2022-10-16T04:38:24;14.90;99.90
32612;DHT22;19030;49.478;8.986;2022-10-16T04:40:25;14.90;99.90
32612;DHT22;19030;49.478;8.986;2022-10-16T04:42:26;14.90;99.90
32612;DHT22;19030;49.478;8.986;2022-10-16T04:44:26;14.90;99.90
32612;DHT22;19030;49.478;8.986;2022-10-16T04:46:27;14.90;99.90
32612;DHT22;19030;49.478;8.986;2022-10-16T04:48:27;14.90;99.90
32612;DHT22;19030;49.478;8.986;2022-10-16T04:50:28;14.90;99.90
32612;DHT22;19030;49.478;8.986;2022-10-16T04:52:39;15.00;99.90
32612;DHT22;19030;49.478;8.986;2022-10-16T04:54:39;14.90;99.90
32612;DHT22;19030;49.478;8.986;2022-10-16T04:56:40;14.90;99.90
32612;DHT22;19030;49.478;8.986;2022-10-16T04:58:43;14.90;99.90
32612;DHT22;19030;49.478;8.986;2022-10-16T05:00:44;14.90;99.90
32612;DHT22;19030;49.478;8.986;2022-10-16T05:02:46;14.90;99.90
32612;DHT22;19030;49.478;8.986;2022-10-16T05:04:46;14.90;99.90
32612;DHT22;19030;49.478;8.986;2022-10-16T05:06:48;14.90;99.90
32612;DHT22;19030;49.478;8.986;2022-10-16T05:08:48;14.90;99.90
32612;DHT22;19030;49.478;8.986;2022-10-16T05:10:49;14.90;99.90
32612;DHT22;19030;49.478;8.986;2022-10-16T05:12:49;14.90;99.90
32612;DHT22;19030;49.478;8.986;2022-10-16T05:14:51;14.90;99.90
32612;DHT22;19030;49.478;8.986;2022-10-16T05:16:52;14.90;99.90
32612;DHT22;19030;49.478;8.986;2022-10-16T05:18:52;14.90;99.90
32612;DHT22;19030;49.478;8.986;2022-10-16T05:20:53;14.90;99.90
32612;DHT22;19030;49.478;8.986;2022-10-16T05:22:54;14.90;99.90
32612;DHT22;19030;49.478;8.986;2022-10-16T05:24:55;14.90;99.90
32612;DHT22;19030;49.478;8.986;2022-10-16T05:26:55;14.90;99.90
32612;DHT22;19030;49.478;8.986;2022-10-16T05:28:56;14.90;99.90
32612;DHT22;19030;49.478;8.986;2022-10-16T05:30:57;14.90;99.90
32612;DHT22;19030;49.478;8.986;2022-10-16T05:32:57;14.90;99.90
32612;DHT22;19030;49.478;8.986;2022-10-16T05:34:58;14.90;99.90
32612;DHT22;19030;49.478;8.986;2022-10-16T05:37:00;14.90;99.90
32612;DHT22;19030;49.478;8.986;2022-10-16T05:39:00;14.90;99.90
32612;DHT22;19030;49.478;8.986;2022-10-16T05:41:01;14.90;99.90
32612;DHT22;19030;49.478;8.986;2022-10-16T05:43:02;14.90;99.90
32612;DHT22;19030;49.478;8.986;2022-10-16T05:45:04;14.90;99.90
32612;DHT22;19030;49.478;8.986;2022-10-16T05:47:05;14.90;99.90
32612;DHT22;19030;49.478;8.986;2022-10-16T05:49:06;14.90;99.90
32612;DHT22;19030;49.478;8.986;2022-10-16T05:51:09;14.90;99.90
32612;DHT22;19030;49.478;8.986;2022-10-16T05:53:09;14.80;99.90
32612;DHT22;19030;49.478;8.986;2022-10-16T05:55:10;14.90;99.90
32612;DHT22;19030;49.478;8.986;2022-10-16T05:57:11;14.90;99.90
32612;DHT22;19030;49.478;8.986;2022-10-16T05:59:11;14.80;99.90
32612;DHT22;19030;49.478;8.986;2022-10-16T06:01:17;14.90;99.90
32612;DHT22;19030;49.478;8.986;2022-10-16T06:03:18;14.90;99.90
32612;DHT22;19030;49.478;8.986;2022-10-16T06:05:19;14.80;99.90
32612;DHT22;19030;49.478;8.986;2022-10-16T06:07:20;14.80;99.90
32612;DHT22;19030;49.478;8.986;2022-10-16T06:09:20;14.80;99.90
32612;DHT22;19030;49.478;8.986;2022-10-16T06:11:23;14.80;99.90
32612;DHT22;19030;49.478;8.986;2022-10-16T06:13:24;14.80;99.90
32612;DHT22;19030;49.478;8.986;2022-10-16T06:15:24;14.80;99.90
32612;DHT22;19030;49.478;8.986;2022-10-16T06:17:25;14.80;99.90
32612;DHT22;19030;49.478;8.986;2022-10-16T06:19:25;14.80;99.90
32612;DHT22;19030;49.478;8.986;2022-10-16T06:21:28;14.80;99.90
32612;DHT22;19030;49.478;8.986;2022-10-16T06:23:29;14.80;99.90
32612;DHT22;19030;49.478;8.986;2022-10-16T06:25:31;14.90;99.90
32612;DHT22;19030;49.478;8.986;2022-10-16T06:27:31;14.90;99.90
32612;DHT22;19030;49.478;8.986;2022-10-16T06:29:32;14.90;99.90
32612;DHT22;19030;49.478;8.986;2022-10-16T06:31:32;14.90;99.90
32612;DHT22;19030;49.478;8.986;2022-10-16T06:33:33;14.90;99.90
32612;DHT22;19030;49.478;8.986;2022-10-16T06:35:34;15.00;99.90
32612;DHT22;19030;49.478;8.986;2022-10-16T06:37:35;15.00;99.90
32612;DHT22;19030;49.478;8.986;2022-10-16T06:39:36;15.00;99.90
32612;DHT22;19030;49.478;8.986;2022-10-16T06:41:36;15.00;99.90
32612;DHT22;19030;49.478;8.986;2022-10-16T06:43:49;15.00;99.90
32612;DHT22;19030;49.478;8.986;2022-10-16T06:45:54;15.00;99.90
32612;DHT22;19030;49.478;8.986;2022-10-16T06:47:55;15.00;99.90
32612;DHT22;19030;49.478;8.986;2022-10-16T06:49:56;15.00;99.90
32612;DHT22;19030;49.478;8.986;2022-10-16T06:51:57;15.10;99.90
32612;DHT22;19030;49.478;8.986;2022-10-16T06:53:57;15.10;99.90
32612;DHT22;19030;49.478;8.986;2022-10-16T06:55:58;15.10;99.90
32612;DHT22;19030;49.478;8.986;2022-10-16T06:57:58;15.10;99.90
32612;DHT22;19030;49.478;8.986;2022-10-16T06:59:59;15.10;99.90
32612;DHT22;19030;49.478;8.986;2022-10-16T07:01:59;15.10;99.90
32612;DHT22;19030;49.478;8.986;2022-10-16T07:04:01;15.10;99.90
32612;DHT22;19030;49.478;8.986;2022-10-16T07:06:03;15.10;99.90
32612;DHT22;19030;49.478;8.986;2022-10-16T07:08:04;15.10;99.90
32612;DHT22;19030;49.478;8.986;2022-10-16T07:10:05;15.20;99.90
32612;DHT22;19030;49.478;8.986;2022-10-16T07:12:06;15.20;99.90
32612;DHT22;19030;49.478;8.986;2022-10-16T07:14:15;15.30;99.90
32612;DHT22;19030;49.478;8.986;2022-10-16T07:16:18;15.50;99.90
32612;DHT22;19030;49.478;8.986;2022-10-16T07:18:19;15.60;99.90
32612;DHT22;19030;49.478;8.986;2022-10-16T07:20:20;15.70;99.90
32612;DHT22;19030;49.478;8.986;2022-10-16T07:22:21;15.80;99.90
32612;DHT22;19030;49.478;8.986;2022-10-16T07:24:21;15.90;99.90
32612;DHT22;19030;49.478;8.986;2022-10-16T07:26:24;16.10;99.90
32612;DHT22;19030;49.478;8.986;2022-10-16T07:28:24;16.20;99.90
32612;DHT22;19030;49.478;8.986;2022-10-16T07:30:25;16.30;99.90
32612;DHT22;19030;49.478;8.986;2022-10-16T07:32:26;16.40;99.90
32612;DHT22;19030;49.478;8.986;2022-10-16T07:34:26;16.50;99.90
32612;DHT22;19030;49.478;8.986;2022-10-16T07:36:27;16.60;99.90
32612;DHT22;19030;49.478;8.986;2022-10-16T07:38:28;16.70;99.90
32612;DHT22;19030;49.478;8.986;2022-10-16T07:40:29;16.80;99.90
32612;DHT22;19030;49.478;8.986;2022-10-16T07:42:29;16.90;99.90
32612;DHT22;19030;49.478;8.986;2022-10-16T07:44:31;16.90;99.90
32612;DHT22;19030;49.478;8.986;2022-10-16T07:46:31;16.90;99.90
32612;DHT22;19030;49.478;8.986;2022-10-16T07:48:34;16.90;99.90
32612;DHT22;19030;49.478;8.986;2022-10-16T07:50:35;16.90;99.90
32612;DHT22;19030;49.478;8.986;2022-10-16T07:52:36;16.90;99.90
32612;DHT22;19030;49.478;8.986;2022-10-16T07:54:36;16.90;99.90
32612;DHT22;19030;49.478;8.986;2022-10-16T07:56:37;17.00;99.90
32612;DHT22;19030;49.478;8.986;2022-10-16T07:58:38;17.20;99.90
32612;DHT22;19030;49.478;8.986;2022-10-16T08:00:38;17.30;99.90
32612;DHT22;19030;49.478;8.986;2022-10-16T08:02:42;17.40;99.90
32612;DHT22;19030;49.478;8.986;2022-10-16T08:04:42;17.60;99.90
32612;DHT22;19030;49.478;8.986;2022-10-16T08:06:43;17.90;99.90
32612;DHT22;19030;49.478;8.986;2022-10-16T08:08:44;18.20;99.90
32612;DHT22;19030;49.478;8.986;2022-10-16T08:10:44;18.80;99.90
32612;DHT22;19030;49.478;8.986;2022-10-16T08:12:45;19.30;99.90
32612;DHT22;19030;49.478;8.986;2022-10-16T08:14:46;19.70;99.90
32612;DHT22;19030;49.478;8.986;2022-10-16T08:16:46;20.00;99.90
32612;DHT22;19030;49.478;8.986;2022-10-16T08:18:47;20.50;99.90
32612;DHT22;19030;49.478;8.986;2022-10-16T08:20:47;21.20;99.90
32612;DHT22;19030;49.478;8.986;2022-10-16T08:22:48;21.80;99.90
32612;DHT22;19030;49.478;8.986;2022-10-16T08:24:48;22.10;99.90
32612;DHT22;19030;49.478;8.986;2022-10-16T08:26:49;22.10;99.90
32612;DHT22;19030;49.478;8.986;2022-10-16T08:28:50;22.10;99.90
32612;DHT22;19030;49.478;8.986;2022-10-16T08:30:52;22.20;99.90
32612;DHT22;19030;49.478;8.986;2022-10-16T08:32:52;22.70;99.90
32612;DHT22;19030;49.478;8.986;2022-10-16T08:34:53;23.60;99.90
32612;DHT22;19030;49.478;8.986;2022-10-16T08:36:53;24.30;99.90
32612;DHT22;19030;49.478;8.986;2022-10-16T08:38:55;24.50;99.90
32612;DHT22;19030;49.478;8.986;2022-10-16T08:48:47;21.30;99.90
32612;DHT22;19030;49.478;8.986;2022-10-16T08:50:50;20.70;99.90
32612;DHT22;19030;49.478;8.986;2022-10-16T08:52:51;20.50;99.90
32612;DHT22;19030;49.478;8.986;2022-10-16T08:54:54;20.50;99.90
32612;DHT22;19030;49.478;8.986;2022-10-16T08:56:56;20.40;99.90
32612;DHT22;19030;49.478;8.986;2022-10-16T08:58:58;20.30;99.90
32612;DHT22;19030;49.478;8.986;2022-10-16T09:01:02;20.20;99.90
32612;DHT22;19030;49.478;8.986;2022-10-16T09:03:21;20.10;99.90
32612;DHT22;19030;49.478;8.986;2022-10-16T09:12:19;20.50;99.90
32612;DHT22;19030;49.478;8.986;2022-10-16T09:16:46;21.30;99.90
32612;DHT22;19030;49.478;8.986;2022-10-16T09:19:00;22.40;99.90
32612;DHT22;19030;49.478;8.986;2022-10-16T09:21:19;25.40;99.90
32612;DHT22;19030;49.478;8.986;2022-10-16T09:23:30;29.40;99.40
32612;DHT22;19030;49.478;8.986;2022-10-16T09:25:32;30.20;80.80
32612;DHT22;19030;49.478;8.986;2022-10-16T09:27:33;29.50;77.90
32612;DHT22;19030;49.478;8.986;2022-10-16T09:29:34;29.00;84.30
32612;DHT22;19030;49.478;8.986;2022-10-16T09:31:36;29.10;81.50
32612;DHT22;19030;49.478;8.986;2022-10-16T09:33:38;29.50;83.20
32612;DHT22;19030;49.478;8.986;2022-10-16T09:35:48;29.40;79.00
32612;DHT22;19030;49.478;8.986;2022-10-16T09:37:52;28.10;79.10
32612;DHT22;19030;49.478;8.986;2022-10-16T09:39:55;26.30;87.10
32612;DHT22;19030;49.478;8.986;2022-10-16T09:41:56;24.80;92.50
32612;DHT22;19030;49.478;8.986;2022-10-16T09:43:59;24.40;99.50
32612;DHT22;19030;49.478;8.986;2022-10-16T09:46:03;27.00;98.00
32612;DHT22;19030;49.478;8.986;2022-10-16T09:48:19;30.70;80.70
32612;DHT22;19030;49.478;8.986;2022-10-16T09:50:26;33.90;61.70
32612;DHT22;19030;49.478;8.986;2022-10-16T09:52:27;35.40;53.30
32612;DHT22;19030;49.478;8.986;2022-10-16T09:54:28;36.60;49.30
32612;DHT22;19030;49.478;8.986;2022-10-16T09:56:31;36.60;48.10
32612;DHT22;19030;49.478;8.986;2022-10-16T09:58:33;36.90;46.00
32612;DHT22;19030;49.478;8.986;2022-10-16T10:00:33;37.70;44.50
32612;DHT22;19030;49.478;8.986;2022-10-16T10:02:36;38.60;42.10
32612;DHT22;19030;49.478;8.986;2022-10-16T10:04:48;39.50;40.60
32612;DHT22;19030;49.478;8.986;2022-10-16T10:06:57;40.30;38.70
32612;DHT22;19030;49.478;8.986;2022-10-16T10:09:18;40.10;37.70
32612;DHT22;19030;49.478;8.986;2022-10-16T10:13:43;40.40;37.40
32612;DHT22;19030;49.478;8.986;2022-10-16T10:15:44;40.50;37.60
32612;DHT22;19030;49.478;8.986;2022-10-16T10:17:47;40.90;35.90
32612;DHT22;19030;49.478;8.986;2022-10-16T10:19:53;41.50;35.50
32612;DHT22;19030;49.478;8.986;2022-10-16T10:21:55;42.00;35.10
32612;DHT22;19030;49.478;8.986;2022-10-16T10:23:56;41.80;34.60
32612;DHT22;19030;49.478;8.986;2022-10-16T10:26:11;41.20;34.90
32612;DHT22;19030;49.478;8.986;2022-10-16T10:28:36;39.40;37.20
32612;DHT22;19030;49.478;8.986;2022-10-16T10:30:49;38.40;38.60
32612;DHT22;19030;49.478;8.986;2022-10-16T10:35:28;37.20;39.70
32612;DHT22;19030;49.478;8.986;2022-10-16T10:37:47;36.90;41.20
32612;DHT22;19030;49.478;8.986;2022-10-16T10:47:06;39.00;37.30
32612;DHT22;19030;49.478;8.986;2022-10-16T10:51:29;39.30;36.40
32612;DHT22;19030;49.478;8.986;2022-10-16T10:56:00;39.30;36.70
32612;DHT22;19030;49.478;8.986;2022-10-16T11:05:42;41.20;33.20
32612;DHT22;19030;49.478;8.986;2022-10-16T11:10:03;41.90;32.00
32612;DHT22;19030;49.478;8.986;2022-10-16T11:14:58;41.80;32.30
32612;DHT22;19030;49.478;8.986;2022-10-16T11:17:08;41.10;33.70
32612;DHT22;19030;49.478;8.986;2022-10-16T11:21:43;41.90;32.40
32612;DHT22;19030;49.478;8.986;2022-10-16T11:24:35;42.20;32.50
32612;DHT22;19030;49.478;8.986;2022-10-16T11:26:21;41.90;32.20
32612;DHT22;19030;49.478;8.986;2022-10-16T11:28:31;41.30;33.00
32612;DHT22;19030;49.478;8.986;2022-10-16T11:30:55;41.30;33.80
32612;DHT22;19030;49.478;8.986;2022-10-16T11:35:57;40.90;33.70
32612;DHT22;19030;49.478;8.986;2022-10-16T11:38:02;41.10;33.40
32612;DHT22;19030;49.478;8.986;2022-10-16T11:40:29;41.50;33.20
32612;DHT22;19030;49.478;8.986;2022-10-16T11:42:41;41.10;32.60
32612;DHT22;19030;49.478;8.986;2022-10-16T11:44:55;40.30;33.50
32612;DHT22;19030;49.478;8.986;2022-10-16T11:47:12;38.90;34.90
32612;DHT22;19030;49.478;8.986;2022-10-16T11:49:22;37.10;37.40
32612;DHT22;19030;49.478;8.986;2022-10-16T11:51:39;35.70;39.50
32612;DHT22;19030;49.478;8.986;2022-10-16T11:56:21;36.60;39.00
32612;DHT22;19030;49.478;8.986;2022-10-16T11:59:17;37.00;37.70
32612;DHT22;19030;49.478;8.986;2022-10-16T12:01:33;36.20;39.30
32612;DHT22;19030;49.478;8.986;2022-10-16T12:03:45;37.10;38.10
32612;DHT22;19030;49.478;8.986;2022-10-16T12:06:14;36.90;37.70
32612;DHT22;19030;49.478;8.986;2022-10-16T12:08:20;36.60;38.10
32612;DHT22;19030;49.478;8.986;2022-10-16T12:10:24;36.60;38.00
32612;DHT22;19030;49.478;8.986;2022-10-16T12:14:38;37.30;37.40
32612;DHT22;19030;49.478;8.986;2022-10-16T12:16:55;38.30;37.60
32612;DHT22;19030;49.478;8.986;2022-10-16T12:19:13;39.50;34.30
32612;DHT22;19030;49.478;8.986;2022-10-16T12:21:16;38.90;35.00
32612;DHT22;19030;49.478;8.986;2022-10-16T12:23:20;37.70;36.50
32612;DHT22;19030;49.478;8.986;2022-10-16T12:27:32;36.80;37.90
32612;DHT22;19030;49.478;8.986;2022-10-16T12:29:37;35.80;39.30
32612;DHT22;19030;49.478;8.986;2022-10-16T12:31:44;36.00;39.50
32612;DHT22;19030;49.478;8.986;2022-10-16T12:34:02;36.50;38.70
32612;DHT22;19030;49.478;8.986;2022-10-16T12:36:30;37.00;37.70
32612;DHT22;19030;49.478;8.986;2022-10-16T12:38:44;35.50;39.40
32612;DHT22;19030;49.478;8.986;2022-10-16T12:41:01;33.80;42.00
32612;DHT22;19030;49.478;8.986;2022-10-16T12:43:23;31.60;45.70
32612;DHT22;19030;49.478;8.986;2022-10-16T12:45:30;29.90;48.20
32612;DHT22;19030;49.478;8.986;2022-10-16T12:49:37;27.60;54.40
32612;DHT22;19030;49.478;8.986;2022-10-16T12:51:42;26.90;59.10
32612;DHT22;19030;49.478;8.986;2022-10-16T12:53:43;26.40;65.20
32612;DHT22;19030;49.478;8.986;2022-10-16T12:56:01;26.10;70.40
32612;DHT22;19030;49.478;8.986;2022-10-16T12:58:15;26.00;75.00
32612;DHT22;19030;49.478;8.986;2022-10-16T13:00:46;26.10;79.10
32612;DHT22;19030;49.478;8.986;2022-10-16T13:11:48;28.20;73.20
32612;DHT22;19030;49.478;8.986;2022-10-16T13:16:09;27.20;78.30
32612;DHT22;19030;49.478;8.986;2022-10-16T13:18:16;26.60;81.00
32612;DHT22;19030;49.478;8.986;2022-10-16T13:22:53;25.90;90.00
32612;DHT22;19030;49.478;8.986;2022-10-16T13:25:18;26.40;88.40
32612;DHT22;19030;49.478;8.986;2022-10-16T13:27:43;26.60;84.10
32612;DHT22;19030;49.478;8.986;2022-10-16T13:29:52;26.50;88.50
32612;DHT22;19030;49.478;8.986;2022-10-16T13:31:53;26.10;87.70
32612;DHT22;19030;49.478;8.986;2022-10-16T13:33:56;25.80;90.60
32612;DHT22;19030;49.478;8.986;2022-10-16T13:35:59;25.40;92.70
32612;DHT22;19030;49.478;8.986;2022-10-16T13:40:20;24.60;94.80
32612;DHT22;19030;49.478;8.986;2022-10-16T13:42:27;24.20;97.50
32612;DHT22;19030;49.478;8.986;2022-10-16T13:44:28;23.90;99.90
32612;DHT22;19030;49.478;8.986;2022-10-16T13:46:31;23.60;99.90
32612;DHT22;19030;49.478;8.986;2022-10-16T13:48:34;23.30;99.90
32612;DHT22;19030;49.478;8.986;2022-10-16T13:50:35;23.00;99.90
32612;DHT22;19030;49.478;8.986;2022-10-16T13:52:35;22.70;99.90
32612;DHT22;19030;49.478;8.986;2022-10-16T13:54:37;22.40;99.90
32612;DHT22;19030;49.478;8.986;2022-10-16T13:56:39;22.20;99.90
32612;DHT22;19030;49.478;8.986;2022-10-16T13:58:41;22.00;99.90
32612;DHT22;19030;49.478;8.986;2022-10-16T14:00:57;21.80;99.90
32612;DHT22;19030;49.478;8.986;2022-10-16T14:03:07;21.50;99.90
32612;DHT22;19030;49.478;8.986;2022-10-16T14:05:09;21.40;99.90
32612;DHT22;19030;49.478;8.986;2022-10-16T14:07:16;21.20;99.90
32612;DHT22;19030;49.478;8.986;2022-10-16T14:09:24;21.00;99.90
32612;DHT22;19030;49.478;8.986;2022-10-16T14:11:26;20.90;99.90
32612;DHT22;19030;49.478;8.986;2022-10-16T14:13:37;20.80;99.90
32612;DHT22;19030;49.478;8.986;2022-10-16T14:15:38;20.70;99.90
32612;DHT22;19030;49.478;8.986;2022-10-16T14:17:43;20.70;99.90
32612;DHT22;19030;49.478;8.986;2022-10-16T14:19:47;20.60;99.90
32612;DHT22;19030;49.478;8.986;2022-10-16T14:21:52;20.50;99.90
32612;DHT22;19030;49.478;8.986;2022-10-16T14:23:53;20.30;99.90
32612;DHT22;19030;49.478;8.986;2022-10-16T14:26:15;20.20;99.90